createdAt,value
2023-05-14T00:00:31.621Z,8.82
2023-05-14T00:01:36.371Z,8.23
2023-05-14T00:02:39.544Z,8.50
2023-05-14T00:03:42.671Z,11.77
2023-05-14T00:04:45.735Z,8.38
2023-05-14T00:05:48.903Z,10.10
2023-05-14T00:06:51.843Z,9.10
2023-05-14T00:07:54.742Z,8.13
2023-05-14T00:08:57.865Z,7.87
2023-05-14T00:10:00.858Z,10.18
2023-05-14T00:11:03.834Z,11.85
2023-05-14T00:12:07.004Z,8.43
2023-05-14T00:13:09.918Z,7.37
2023-05-14T00:14:12.920Z,8.63
2023-05-14T00:15:16.015Z,6.68
2023-05-14T00:16:19.181Z,8.40
2023-05-14T00:17:22.843Z,10.30
2023-05-14T00:18:25.834Z,11.10
2023-05-14T00:19:28.947Z,8.10
2023-05-14T00:20:31.950Z,7.43
2023-05-14T00:21:34.904Z,8.25
2023-05-14T00:22:38.190Z,7.55
2023-05-14T00:23:41.084Z,7.43
2023-05-14T00:24:44.038Z,7.82
2023-05-14T00:25:47.142Z,8.82
2023-05-14T00:26:50.244Z,7.93
2023-05-14T00:27:53.197Z,8.60
2023-05-14T00:28:56.129Z,11.85
2023-05-14T00:29:59.051Z,9.75
2023-05-14T00:31:01.988Z,7.80
2023-05-14T00:32:05.400Z,8.02
2023-05-14T00:33:08.549Z,6.80
2023-05-14T00:34:11.436Z,7.60
2023-05-14T00:35:14.462Z,9.80
2023-05-14T00:36:17.396Z,6.57
2023-05-14T00:37:20.605Z,9.63
2023-05-14T00:38:24.553Z,6.82
2023-05-14T00:39:27.318Z,6.15
2023-05-14T00:40:31.026Z,9.60
2023-05-14T00:41:34.106Z,7.65
2023-05-14T00:42:37.026Z,8.05
2023-05-14T00:43:39.948Z,7.65
2023-05-14T00:44:42.936Z,7.20
2023-05-14T00:45:46.706Z,9.70
2023-05-14T00:46:50.063Z,7.30
2023-05-14T00:47:54.135Z,12.55
2023-05-14T00:48:59.116Z,9.07
2023-05-14T00:50:04.120Z,10.65
2023-05-14T00:51:08.415Z,7.03
2023-05-14T00:52:12.239Z,7.50
2023-05-14T00:53:15.257Z,8.25
2023-05-14T00:54:18.585Z,11.12
2023-05-14T00:55:22.166Z,8.40
2023-05-14T00:56:25.312Z,7.95
2023-05-14T00:57:28.302Z,7.12
2023-05-14T00:58:31.377Z,9.35
2023-05-14T00:59:34.578Z,10.13
2023-05-14T01:00:38.860Z,7.93
2023-05-14T01:01:42.193Z,7.70
2023-05-14T01:02:45.256Z,8.20
2023-05-14T01:03:49.092Z,10.00
2023-05-14T01:04:52.763Z,7.30
2023-05-14T01:06:07.737Z,10.77
2023-05-14T01:07:28.154Z,9.77
2023-05-14T01:08:49.076Z,7.12
2023-05-14T01:10:04.357Z,8.30
2023-05-14T01:11:17.002Z,8.60
2023-05-14T01:12:45.023Z,9.57
2023-05-14T01:14:16.227Z,10.18
2023-05-14T01:15:24.262Z,9.68
2023-05-14T01:16:28.826Z,6.72
2023-05-14T01:17:34.128Z,8.52
2023-05-14T01:18:37.646Z,9.77
2023-05-14T01:19:45.509Z,8.30
2023-05-14T01:20:52.881Z,9.15
2023-05-14T01:21:55.719Z,9.95
2023-05-14T01:22:58.749Z,10.85
2023-05-14T01:24:01.684Z,8.10
2023-05-14T01:25:06.400Z,8.88
2023-05-14T01:26:09.469Z,7.57
2023-05-14T01:27:40.237Z,8.63
2023-05-14T01:28:44.776Z,7.30
2023-05-14T01:29:59.611Z,8.63
2023-05-14T01:31:13.976Z,8.95
2023-05-14T01:32:19.190Z,7.70
2023-05-14T01:33:25.143Z,7.82
2023-05-14T01:34:30.315Z,9.60
2023-05-14T01:35:33.861Z,6.15
2023-05-14T01:36:37.154Z,8.38
2023-05-14T01:37:42.131Z,11.05
2023-05-14T01:38:47.469Z,7.28
2023-05-14T01:39:52.251Z,10.10
2023-05-14T01:40:56.074Z,7.28
2023-05-14T01:42:00.220Z,7.78
2023-05-14T01:43:04.877Z,7.85
2023-05-14T01:44:10.027Z,9.57
2023-05-14T01:45:13.005Z,9.93
2023-05-14T01:46:19.837Z,8.65
2023-05-14T01:47:22.964Z,9.93
2023-05-14T01:48:26.054Z,9.60
2023-05-14T01:49:28.983Z,8.13
2023-05-14T01:50:32.112Z,8.02
2023-05-14T01:51:35.080Z,9.55
2023-05-14T01:52:38.035Z,7.85
2023-05-14T01:53:41.559Z,6.10
2023-05-14T01:54:44.401Z,7.28
2023-05-14T01:55:47.564Z,8.15
2023-05-14T01:56:50.662Z,8.15
2023-05-14T01:57:54.298Z,7.07
2023-05-14T01:58:57.358Z,8.93
2023-05-14T02:00:00.316Z,8.65
2023-05-14T02:01:03.189Z,8.68
2023-05-14T02:02:06.246Z,9.82
2023-05-14T02:03:09.213Z,9.55
2023-05-14T02:04:12.320Z,8.48
2023-05-14T02:05:15.250Z,7.60
2023-05-14T02:06:18.258Z,7.20
2023-05-14T02:07:21.212Z,7.57
2023-05-14T02:08:24.395Z,8.45
2023-05-14T02:09:27.603Z,10.02
2023-05-14T02:10:30.716Z,9.68
2023-05-14T02:11:33.608Z,8.38
2023-05-14T02:12:36.703Z,7.12
2023-05-14T02:13:39.652Z,10.05
2023-05-14T02:14:42.792Z,8.35
2023-05-14T02:15:45.846Z,9.77
2023-05-14T02:16:48.969Z,8.43
2023-05-14T02:17:52.024Z,7.03
2023-05-14T02:18:54.966Z,8.52
2023-05-14T02:19:58.046Z,10.50
2023-05-14T02:21:00.939Z,7.87
2023-05-14T02:22:03.911Z,7.32
2023-05-14T02:23:07.109Z,9.98
2023-05-14T02:24:10.308Z,9.15
2023-05-14T02:25:13.323Z,7.75
2023-05-14T02:26:16.433Z,10.65
2023-05-14T02:27:19.687Z,8.35
2023-05-14T02:28:22.698Z,7.78
2023-05-14T02:29:26.003Z,9.02
2023-05-14T02:30:30.502Z,6.35
2023-05-14T02:31:33.543Z,9.77
2023-05-14T02:32:36.608Z,8.48
2023-05-14T02:33:39.577Z,6.35
2023-05-14T02:34:42.508Z,7.35
2023-05-14T02:35:45.361Z,8.52
2023-05-14T02:36:48.410Z,8.25
2023-05-14T02:37:51.449Z,6.45
2023-05-14T02:38:54.453Z,7.97
2023-05-14T02:39:57.473Z,7.82
2023-05-14T02:41:00.582Z,8.32
2023-05-14T02:42:03.462Z,7.37
2023-05-14T02:43:07.079Z,6.90
2023-05-14T02:44:10.160Z,9.48
2023-05-14T02:45:13.077Z,9.02
2023-05-14T02:46:15.929Z,8.38
2023-05-14T02:47:19.212Z,8.35
2023-05-14T02:48:22.151Z,7.03
2023-05-14T02:49:25.183Z,9.70
2023-05-14T02:50:28.334Z,7.12
2023-05-14T02:51:31.312Z,10.68
2023-05-14T02:52:34.488Z,9.80
2023-05-14T02:53:37.370Z,9.05
2023-05-14T02:54:40.307Z,6.50
2023-05-14T02:55:43.352Z,11.95
2023-05-14T02:56:46.448Z,7.15
2023-05-14T02:57:49.440Z,7.43
2023-05-14T02:58:52.390Z,8.00
2023-05-14T02:59:55.820Z,7.87
2023-05-14T03:00:58.869Z,8.80
2023-05-14T03:02:02.273Z,7.85
2023-05-14T03:03:05.918Z,6.95
2023-05-14T03:04:09.723Z,6.30
2023-05-14T03:05:12.748Z,7.07
2023-05-14T03:06:15.898Z,8.45
2023-05-14T03:07:18.910Z,6.82
2023-05-14T03:08:21.772Z,8.95
2023-05-14T03:09:24.771Z,9.93
2023-05-14T03:10:27.682Z,7.70
2023-05-14T03:11:30.640Z,8.43
2023-05-14T03:12:33.446Z,7.53
2023-05-14T03:13:36.343Z,8.35
2023-05-14T03:14:39.272Z,9.10
2023-05-14T03:15:42.191Z,7.22
2023-05-14T03:16:45.191Z,5.57
2023-05-14T03:17:48.156Z,8.15
2023-05-14T03:18:51.187Z,8.20
2023-05-14T03:19:54.176Z,6.20
2023-05-14T03:20:57.250Z,7.50
2023-05-14T03:22:00.420Z,7.43
2023-05-14T03:23:03.368Z,9.40
2023-05-14T03:24:06.501Z,8.43
2023-05-14T03:25:09.637Z,7.07
2023-05-14T03:26:12.608Z,8.15
2023-05-14T03:27:15.554Z,8.10
2023-05-14T03:28:18.542Z,8.02
2023-05-14T03:29:21.519Z,6.90
2023-05-14T03:30:24.908Z,5.85
2023-05-14T03:31:28.350Z,7.20
2023-05-14T03:32:31.419Z,7.90
2023-05-14T03:33:34.375Z,7.35
2023-05-14T03:34:37.326Z,7.45
2023-05-14T03:35:40.174Z,8.63
2023-05-14T03:36:43.214Z,8.63
2023-05-14T03:37:46.305Z,6.93
2023-05-14T03:38:49.165Z,8.73
2023-05-14T03:39:52.016Z,11.48
2023-05-14T03:40:55.057Z,8.95
2023-05-14T03:41:59.115Z,8.50
2023-05-14T03:43:01.944Z,9.98
2023-05-14T03:44:06.590Z,8.43
2023-05-14T03:45:10.104Z,11.02
2023-05-14T03:46:13.266Z,7.50
2023-05-14T03:47:16.455Z,6.32
2023-05-14T03:48:22.537Z,6.95
2023-05-14T03:49:26.083Z,7.55
2023-05-14T03:50:29.012Z,7.07
2023-05-14T03:51:32.108Z,8.45
2023-05-14T03:52:35.063Z,6.50
2023-05-14T03:53:37.994Z,6.25
2023-05-14T03:54:41.549Z,7.05
2023-05-14T03:55:44.374Z,6.90
2023-05-14T03:56:47.297Z,8.18
2023-05-14T03:57:50.282Z,6.45
2023-05-14T03:58:53.628Z,6.75
2023-05-14T03:59:56.609Z,6.43
2023-05-14T04:01:00.652Z,6.75
2023-05-14T04:02:03.592Z,8.50
2023-05-14T04:03:06.681Z,8.90
2023-05-14T04:04:09.689Z,6.90
2023-05-14T04:05:12.779Z,8.55
2023-05-14T04:06:15.621Z,7.43
2023-05-14T04:07:18.740Z,8.48
2023-05-14T04:08:21.715Z,6.32
2023-05-14T04:09:24.660Z,7.25
2023-05-14T04:10:27.919Z,6.20
2023-05-14T04:11:30.832Z,9.77
2023-05-14T04:12:33.658Z,8.90
2023-05-14T04:13:36.620Z,7.85
2023-05-14T04:14:39.463Z,5.57
2023-05-14T04:15:42.375Z,9.43
2023-05-14T04:16:45.477Z,8.45
2023-05-14T04:17:48.513Z,6.95
2023-05-14T04:18:51.574Z,6.37
2023-05-14T04:19:54.561Z,8.82
2023-05-14T04:20:57.702Z,8.50
2023-05-14T04:22:00.648Z,7.62
2023-05-14T04:23:03.671Z,7.85
2023-05-14T04:24:07.073Z,5.72
2023-05-14T04:25:10.216Z,6.80
2023-05-14T04:26:13.162Z,12.57
2023-05-14T04:27:24.237Z,5.82
2023-05-14T04:28:27.233Z,6.75
2023-05-14T04:29:30.608Z,6.68
2023-05-14T04:30:33.544Z,5.22
2023-05-14T04:31:36.658Z,5.70
2023-05-14T04:32:39.677Z,8.77
2023-05-14T04:33:42.488Z,7.97
2023-05-14T04:34:47.344Z,6.53
2023-05-14T04:35:50.277Z,7.78
2023-05-14T04:36:53.323Z,6.87
2023-05-14T04:37:56.280Z,6.35
2023-05-14T04:38:59.316Z,8.65
2023-05-14T04:40:02.407Z,6.97
2023-05-14T04:41:06.330Z,12.02
2023-05-14T04:42:09.361Z,5.85
2023-05-14T04:43:12.404Z,7.65
2023-05-14T04:44:15.312Z,5.20
2023-05-14T04:45:18.358Z,7.40
2023-05-14T04:46:21.317Z,6.22
2023-05-14T04:47:24.373Z,7.80
2023-05-14T04:48:27.341Z,7.18
2023-05-14T04:49:31.203Z,7.57
2023-05-14T04:50:34.898Z,6.22
2023-05-14T04:51:37.937Z,5.95
2023-05-14T04:52:41.078Z,6.00
2023-05-14T04:53:44.010Z,6.87
2023-05-14T04:54:47.004Z,5.35
2023-05-14T04:55:49.977Z,6.70
2023-05-14T04:56:52.888Z,7.85
2023-05-14T04:57:55.837Z,5.93
2023-05-14T04:58:58.762Z,6.30
2023-05-14T05:00:01.713Z,5.82
2023-05-14T05:01:06.303Z,6.40
2023-05-14T05:02:09.240Z,8.90
2023-05-14T05:03:12.271Z,6.95
2023-05-14T05:04:15.465Z,5.32
2023-05-14T05:05:18.540Z,7.57
2023-05-14T05:06:21.628Z,4.87
2023-05-14T05:07:24.523Z,6.50
2023-05-14T05:08:27.534Z,6.00
2023-05-14T05:09:30.843Z,7.55
2023-05-14T05:10:33.802Z,7.37
2023-05-14T05:11:36.667Z,5.45
2023-05-14T05:12:39.678Z,6.15
2023-05-14T05:13:42.598Z,7.35
2023-05-14T05:14:45.502Z,7.60
2023-05-14T05:15:48.419Z,6.87
2023-05-14T05:16:51.922Z,5.25
2023-05-14T05:17:55.109Z,10.98
2023-05-14T05:18:57.986Z,6.40
2023-05-14T05:20:01.207Z,5.22
2023-05-14T05:21:04.098Z,9.05
2023-05-14T05:22:07.272Z,5.57
2023-05-14T05:23:10.406Z,5.72
2023-05-14T05:24:13.676Z,7.07
2023-05-14T05:25:16.890Z,7.20
2023-05-14T05:26:19.827Z,8.68
2023-05-14T05:27:22.969Z,5.80
2023-05-14T05:28:26.004Z,7.10
2023-05-14T05:29:28.936Z,4.80
2023-05-14T05:30:31.891Z,6.70
2023-05-14T05:31:34.925Z,8.45
2023-05-14T05:32:38.301Z,6.00
2023-05-14T05:33:41.496Z,5.53
2023-05-14T05:34:44.599Z,7.22
2023-05-14T05:35:48.458Z,8.48
2023-05-14T05:36:52.035Z,5.25
2023-05-14T05:37:54.879Z,5.37
2023-05-14T05:38:57.744Z,8.48
2023-05-14T05:40:00.786Z,9.95
2023-05-14T05:41:04.611Z,6.20
2023-05-14T05:42:08.194Z,5.20
2023-05-14T05:43:11.325Z,6.80
2023-05-14T05:44:14.297Z,9.68
2023-05-14T05:45:17.378Z,5.82
2023-05-14T05:46:20.304Z,4.78
2023-05-14T05:47:23.410Z,6.85
2023-05-14T05:48:26.302Z,5.80
2023-05-14T05:49:29.354Z,5.82
2023-05-14T05:50:32.548Z,6.72
2023-05-14T05:51:35.550Z,6.32
2023-05-14T05:52:39.653Z,5.93
2023-05-14T05:53:42.629Z,6.93
2023-05-14T05:54:45.879Z,8.15
2023-05-14T05:55:48.708Z,5.70
2023-05-14T05:56:52.282Z,6.70
2023-05-14T05:57:55.069Z,5.75
2023-05-14T05:58:58.142Z,8.75
2023-05-14T06:00:01.301Z,5.87
2023-05-14T06:01:04.352Z,8.25
2023-05-14T06:02:07.376Z,6.60
2023-05-14T06:03:11.287Z,7.05
2023-05-14T06:04:14.349Z,7.87
2023-05-14T06:05:17.383Z,8.20
2023-05-14T06:06:20.296Z,5.05
2023-05-14T06:07:23.295Z,6.78
2023-05-14T06:08:26.104Z,7.97
2023-05-14T06:09:29.250Z,7.10
2023-05-14T06:10:32.582Z,9.07
2023-05-14T06:11:36.253Z,6.30
2023-05-14T06:12:39.088Z,9.15
2023-05-14T06:13:42.034Z,5.07
2023-05-14T06:14:44.964Z,9.13
2023-05-14T06:15:47.922Z,5.20
2023-05-14T06:16:50.954Z,5.30
2023-05-14T06:17:53.941Z,7.20
2023-05-14T06:18:57.086Z,8.52
2023-05-14T06:20:00.042Z,5.82
2023-05-14T06:21:03.158Z,6.45
2023-05-14T06:22:06.240Z,6.53
2023-05-14T06:23:09.422Z,6.20
2023-05-14T06:24:13.508Z,9.40
2023-05-14T06:25:16.480Z,14.00
2023-05-14T06:26:19.484Z,7.03
2023-05-14T06:27:22.629Z,7.57
2023-05-14T06:28:25.512Z,11.55
2023-05-14T06:29:28.540Z,9.05
2023-05-14T06:30:31.469Z,8.48
2023-05-14T06:31:34.427Z,5.90
2023-05-14T06:32:37.707Z,6.82
2023-05-14T06:33:40.761Z,6.22
2023-05-14T06:34:43.665Z,5.80
2023-05-14T06:35:46.911Z,7.95
2023-05-14T06:36:49.758Z,7.45
2023-05-14T06:37:52.694Z,8.60
2023-05-14T06:38:55.584Z,7.43
2023-05-14T06:39:58.508Z,10.13
2023-05-14T06:41:01.520Z,6.68
2023-05-14T06:42:05.023Z,6.75
2023-05-14T06:43:08.000Z,9.77
2023-05-14T06:44:11.254Z,8.18
2023-05-14T06:45:14.197Z,7.45
2023-05-14T06:46:17.185Z,7.37
2023-05-14T06:47:20.618Z,6.32
2023-05-14T06:48:23.597Z,7.22
2023-05-14T06:49:26.559Z,7.93
2023-05-14T06:50:29.568Z,7.12
2023-05-14T06:51:32.906Z,7.87
2023-05-14T06:52:37.435Z,7.93
2023-05-14T06:53:41.304Z,6.25
2023-05-14T06:54:44.167Z,8.82
2023-05-14T06:55:49.836Z,7.57
2023-05-14T06:56:54.216Z,7.43
2023-05-14T06:57:57.163Z,7.78
2023-05-14T06:59:00.127Z,8.48
2023-05-14T07:00:03.683Z,7.87
2023-05-14T07:01:07.142Z,10.85
2023-05-14T07:02:10.083Z,7.00
2023-05-14T07:03:13.006Z,6.55
2023-05-14T07:04:15.927Z,7.37
2023-05-14T07:05:19.526Z,6.97
2023-05-14T07:06:23.112Z,6.10
2023-05-14T07:07:26.099Z,8.40
2023-05-14T07:08:29.168Z,10.65
2023-05-14T07:09:32.313Z,10.90
2023-05-14T07:10:35.323Z,7.35
2023-05-14T07:11:38.290Z,8.82
2023-05-14T07:12:41.363Z,12.07
2023-05-14T07:13:44.448Z,6.25
2023-05-14T07:14:47.467Z,6.95
2023-05-14T07:15:51.613Z,6.60
2023-05-14T07:16:54.638Z,8.15
2023-05-14T07:17:57.550Z,8.70
2023-05-14T07:19:00.618Z,10.35
2023-05-14T07:20:03.765Z,6.70
2023-05-14T07:21:06.922Z,11.12
2023-05-14T07:22:09.817Z,7.78
2023-05-14T07:23:12.723Z,7.53
2023-05-14T07:24:15.603Z,7.57
2023-05-14T07:25:18.699Z,7.50
2023-05-14T07:26:21.789Z,7.93
2023-05-14T07:27:24.765Z,5.85
2023-05-14T07:28:27.598Z,7.62
2023-05-14T07:29:31.085Z,7.65
2023-05-14T07:30:34.068Z,7.70
2023-05-14T07:31:37.146Z,9.57
2023-05-14T07:32:40.288Z,7.53
2023-05-14T07:33:43.164Z,7.72
2023-05-14T07:34:46.630Z,7.82
2023-05-14T07:35:49.560Z,8.38
2023-05-14T07:36:52.774Z,7.90
2023-05-14T07:37:55.686Z,8.75
2023-05-14T07:38:58.743Z,7.85
2023-05-14T07:40:01.598Z,8.38
2023-05-14T07:41:04.892Z,7.60
2023-05-14T07:42:07.862Z,7.45
2023-05-14T07:43:11.165Z,7.10
2023-05-14T07:44:14.139Z,8.68
2023-05-14T07:45:17.142Z,9.38
2023-05-14T07:46:20.045Z,10.50
2023-05-14T07:47:23.019Z,8.90
2023-05-14T07:48:25.988Z,9.90
2023-05-14T07:49:28.877Z,7.30
2023-05-14T07:50:31.967Z,8.00
2023-05-14T07:51:35.051Z,6.03
2023-05-14T07:52:37.889Z,6.87
2023-05-14T07:53:40.787Z,8.20
2023-05-14T07:54:43.640Z,10.75
2023-05-14T07:55:48.950Z,6.65
2023-05-14T07:56:52.251Z,9.35
2023-05-14T07:57:55.142Z,9.65
2023-05-14T07:58:58.134Z,7.55
2023-05-14T08:00:00.945Z,7.65
2023-05-14T08:01:07.391Z,7.28
2023-05-14T08:02:13.351Z,7.95
2023-05-14T08:03:16.437Z,7.90
2023-05-14T08:04:19.525Z,7.15
2023-05-14T08:05:22.402Z,7.55
2023-05-14T08:06:27.831Z,11.27
2023-05-14T08:07:31.160Z,8.75
2023-05-14T08:08:35.354Z,8.02
2023-05-14T08:09:38.223Z,8.65
2023-05-14T08:10:41.222Z,11.07
2023-05-14T08:11:44.294Z,7.62
2023-05-14T08:12:47.105Z,7.68
2023-05-14T08:13:50.117Z,8.05
2023-05-14T08:14:53.581Z,7.15
2023-05-14T08:15:56.777Z,6.35
2023-05-14T08:16:59.664Z,7.05
2023-05-14T08:18:04.048Z,8.20
2023-05-14T08:19:07.580Z,13.10
2023-05-14T08:20:12.251Z,8.30
2023-05-14T08:21:15.337Z,7.53
2023-05-14T08:22:18.343Z,8.60
2023-05-14T08:23:21.167Z,7.35
2023-05-14T08:24:24.118Z,8.60
2023-05-14T08:25:27.124Z,6.57
2023-05-14T08:26:30.095Z,6.37
2023-05-14T08:27:33.164Z,7.28
2023-05-14T08:28:36.115Z,7.00
2023-05-14T08:29:41.840Z,8.88
2023-05-14T08:30:44.845Z,6.90
2023-05-14T08:31:49.301Z,9.27
2023-05-14T08:32:53.117Z,6.75
2023-05-14T08:33:56.211Z,7.05
2023-05-14T08:34:59.783Z,7.03
2023-05-14T08:36:02.877Z,10.43
2023-05-14T08:37:05.969Z,6.75
2023-05-14T08:38:09.023Z,7.80
2023-05-14T08:39:12.269Z,9.93
2023-05-14T08:40:15.233Z,8.55
2023-05-14T08:41:18.310Z,7.60
2023-05-14T08:42:22.385Z,9.25
2023-05-14T08:43:37.047Z,7.22
2023-05-14T08:44:49.944Z,8.15
2023-05-14T08:45:59.010Z,11.45
2023-05-14T08:47:02.417Z,8.50
2023-05-14T08:48:12.203Z,6.90
2023-05-14T08:49:41.255Z,9.80
2023-05-14T08:50:44.806Z,8.77
2023-05-14T08:51:48.684Z,7.93
2023-05-14T08:52:52.265Z,9.07
2023-05-14T08:53:55.691Z,8.32
2023-05-14T08:55:04.552Z,6.70
2023-05-14T08:56:09.286Z,9.73
2023-05-14T08:57:13.339Z,7.30
2023-05-14T08:58:16.551Z,7.55
2023-05-14T08:59:20.302Z,8.88
2023-05-14T09:00:23.940Z,8.70
2023-05-14T09:01:27.635Z,7.70
2023-05-14T09:02:31.843Z,9.63
2023-05-14T09:03:36.436Z,8.10
2023-05-14T09:04:41.334Z,8.32
2023-05-14T09:05:44.860Z,9.13
2023-05-14T09:06:50.193Z,7.82
2023-05-14T09:07:53.488Z,7.50
2023-05-14T09:08:56.733Z,8.45
2023-05-14T09:10:00.235Z,7.07
2023-05-14T09:11:03.144Z,6.97
2023-05-14T09:12:06.857Z,7.90
2023-05-14T09:13:10.534Z,7.50
2023-05-14T09:14:13.725Z,9.18
2023-05-14T09:15:16.604Z,9.40
2023-05-14T09:16:20.896Z,7.43
2023-05-14T09:17:27.603Z,9.00
2023-05-14T09:18:30.947Z,8.32
2023-05-14T09:19:34.125Z,7.30
2023-05-14T09:20:37.186Z,9.18
2023-05-14T09:21:40.948Z,8.93
2023-05-14T09:22:43.958Z,8.10
2023-05-14T09:23:48.197Z,7.68
2023-05-14T09:25:05.394Z,9.85
2023-05-14T09:26:08.545Z,6.95
2023-05-14T09:27:20.834Z,8.82
2023-05-14T09:28:24.708Z,9.65
2023-05-14T09:29:29.751Z,7.50
2023-05-14T09:30:34.655Z,8.20
2023-05-14T09:31:37.745Z,9.13
2023-05-14T09:32:46.362Z,8.10
2023-05-14T09:33:54.287Z,9.25
2023-05-14T09:34:57.358Z,9.27
2023-05-14T09:36:03.990Z,7.90
2023-05-14T09:37:09.113Z,9.52
2023-05-14T09:38:12.387Z,7.00
2023-05-14T09:39:15.244Z,8.13
2023-05-14T09:40:20.980Z,8.20
2023-05-14T09:41:24.851Z,8.55
2023-05-14T09:42:27.924Z,8.00
2023-05-14T09:43:31.035Z,9.15
2023-05-14T09:44:36.579Z,9.60
2023-05-14T09:45:41.161Z,7.28
2023-05-14T09:46:45.342Z,9.13
2023-05-14T09:47:49.052Z,9.25
2023-05-14T09:48:51.982Z,11.00
2023-05-14T09:49:54.876Z,9.85
2023-05-14T09:50:57.861Z,8.23
2023-05-14T09:52:03.712Z,7.90
2023-05-14T09:53:08.046Z,9.63
2023-05-14T09:54:11.438Z,7.32
2023-05-14T09:55:15.343Z,8.38
2023-05-14T09:56:18.893Z,7.82
2023-05-14T09:57:21.937Z,8.43
2023-05-14T09:58:24.872Z,8.57
2023-05-14T09:59:27.799Z,10.35
2023-05-14T10:00:32.958Z,8.52
2023-05-14T10:01:37.718Z,7.82
2023-05-14T10:02:43.453Z,13.90
2023-05-14T10:03:47.327Z,8.55
2023-05-14T10:04:52.315Z,10.10
2023-05-14T10:05:59.811Z,8.48
2023-05-14T10:07:04.006Z,9.07
2023-05-14T10:08:14.181Z,9.95
2023-05-14T10:09:20.860Z,9.45
2023-05-14T10:10:29.854Z,10.23
2023-05-14T10:11:36.949Z,10.00
2023-05-14T10:12:41.225Z,9.73
2023-05-14T10:13:50.611Z,9.57
2023-05-14T10:14:55.934Z,7.87
2023-05-14T10:16:05.641Z,9.25
2023-05-14T10:17:18.660Z,8.95
2023-05-14T10:18:24.655Z,11.32
2023-05-14T10:19:32.411Z,9.40
2023-05-14T10:20:37.307Z,8.98
2023-05-14T10:21:45.085Z,12.18
2023-05-14T10:22:48.168Z,9.48
2023-05-14T10:23:52.337Z,10.95
2023-05-14T10:24:56.534Z,9.52
2023-05-14T10:26:00.638Z,8.80
2023-05-14T10:27:03.744Z,9.15
2023-05-14T10:28:07.018Z,10.05
2023-05-14T10:29:11.640Z,12.77
2023-05-14T10:30:14.642Z,8.68
2023-05-14T10:31:17.582Z,11.70
2023-05-14T10:32:22.445Z,10.35
2023-05-14T10:33:25.340Z,9.00
2023-05-14T10:34:32.643Z,10.02
2023-05-14T10:36:00.295Z,9.57
2023-05-14T10:37:11.762Z,8.05
2023-05-14T10:38:15.591Z,11.45
2023-05-14T10:39:18.672Z,14.23
2023-05-14T10:40:25.045Z,8.27
2023-05-14T10:41:28.243Z,7.57
2023-05-14T10:42:38.029Z,10.57
2023-05-14T10:43:42.517Z,8.35
2023-05-14T10:44:56.186Z,9.73
2023-05-14T10:46:01.166Z,10.02
2023-05-14T10:47:04.336Z,9.93
2023-05-14T10:48:07.616Z,9.32
2023-05-14T10:49:12.004Z,8.82
2023-05-14T10:50:16.291Z,13.68
2023-05-14T10:51:21.084Z,9.13
2023-05-14T10:52:25.310Z,8.75
2023-05-14T10:53:38.702Z,8.90
2023-05-14T10:54:50.944Z,8.13
2023-05-14T10:55:55.909Z,8.77
2023-05-14T10:57:01.923Z,10.25
2023-05-14T10:58:04.896Z,9.07
2023-05-14T10:59:08.262Z,9.57
2023-05-14T11:00:12.930Z,10.73
2023-05-14T11:01:16.060Z,10.13
2023-05-14T11:02:30.465Z,8.25
2023-05-14T11:03:41.174Z,9.23
2023-05-14T11:04:59.448Z,8.90
2023-05-14T11:06:04.484Z,11.63
2023-05-14T11:07:07.901Z,10.15
2023-05-14T11:08:12.562Z,7.72
2023-05-14T11:09:17.917Z,8.15
2023-05-14T11:10:26.358Z,10.63
2023-05-14T11:11:29.800Z,11.63
2023-05-14T11:12:34.437Z,9.70
2023-05-14T11:13:37.331Z,9.73
2023-05-14T11:14:40.371Z,11.38
2023-05-14T11:15:48.370Z,7.53
2023-05-14T11:16:51.483Z,10.48
2023-05-14T11:17:54.684Z,9.15
2023-05-14T11:19:05.225Z,10.45
2023-05-14T11:20:09.044Z,9.65
2023-05-14T11:21:12.052Z,10.43
2023-05-14T11:22:15.071Z,9.00
2023-05-14T11:23:18.257Z,8.30
2023-05-14T11:24:21.518Z,8.18
2023-05-14T11:25:26.174Z,15.05
2023-05-14T11:26:29.190Z,7.93
2023-05-14T11:27:35.197Z,11.02
2023-05-14T11:28:39.416Z,10.88
2023-05-14T11:29:49.410Z,16.48
2023-05-14T11:30:53.894Z,10.43
2023-05-14T11:31:56.840Z,13.55
2023-05-14T11:33:01.891Z,11.00
2023-05-14T11:34:08.169Z,10.23
2023-05-14T11:35:11.415Z,12.57
2023-05-14T11:36:15.026Z,12.20
2023-05-14T11:37:18.275Z,9.65
2023-05-14T11:38:21.817Z,10.10
2023-05-14T11:39:24.735Z,10.23
2023-05-14T11:40:27.780Z,12.05
2023-05-14T11:41:31.650Z,11.38
2023-05-14T11:42:34.796Z,8.98
2023-05-14T11:43:37.901Z,11.85
2023-05-14T11:44:41.872Z,10.93
2023-05-14T11:45:52.052Z,14.20
2023-05-14T11:46:59.007Z,9.70
2023-05-14T11:48:02.034Z,14.23
2023-05-14T11:49:05.623Z,14.07
2023-05-14T11:50:09.833Z,12.20
2023-05-14T11:51:13.241Z,12.07
2023-05-14T11:52:19.731Z,14.13
2023-05-14T11:53:27.794Z,12.75
2023-05-14T11:54:31.477Z,10.65
2023-05-14T11:55:36.524Z,9.15
2023-05-14T11:56:39.410Z,9.15
2023-05-14T11:57:42.895Z,10.50
2023-05-14T11:58:50.264Z,11.35
2023-05-14T11:59:59.455Z,13.60
2023-05-14T12:01:02.403Z,14.25
2023-05-14T12:02:06.420Z,10.90
2023-05-14T12:03:10.424Z,14.77
2023-05-14T12:04:14.550Z,13.20
2023-05-14T12:05:17.881Z,11.00
2023-05-14T12:06:20.903Z,11.57
2023-05-14T12:07:23.824Z,11.90
2023-05-14T12:08:28.796Z,10.13
2023-05-14T12:09:38.189Z,11.27
2023-05-14T12:10:43.893Z,13.13
2023-05-14T12:11:47.915Z,11.00
2023-05-14T12:12:50.963Z,11.12
2023-05-14T12:13:53.873Z,10.07
2023-05-14T12:14:56.804Z,10.95
2023-05-14T12:16:02.379Z,10.48
2023-05-14T12:17:22.474Z,8.27
2023-05-14T12:18:27.255Z,12.75
2023-05-14T12:19:31.186Z,10.15
2023-05-14T12:20:34.373Z,10.60
2023-05-14T12:21:37.751Z,10.80
2023-05-14T12:22:42.680Z,11.27
2023-05-14T12:23:45.609Z,9.38
2023-05-14T12:24:55.647Z,8.25
2023-05-14T12:26:09.326Z,9.48
2023-05-14T12:27:12.525Z,12.95
2023-05-14T12:28:16.858Z,8.40
2023-05-14T12:29:22.025Z,10.32
2023-05-14T12:30:24.870Z,8.32
2023-05-14T12:31:31.912Z,8.13
2023-05-14T12:32:35.984Z,8.77
2023-05-14T12:33:38.904Z,7.28
2023-05-14T12:34:41.866Z,9.85
2023-05-14T12:35:44.648Z,9.05
2023-05-14T12:36:47.685Z,7.62
2023-05-14T12:37:50.493Z,9.50
2023-05-14T12:39:04.258Z,10.32
2023-05-14T12:40:10.516Z,7.30
2023-05-14T12:41:13.792Z,8.23
2023-05-14T12:42:16.846Z,7.45
2023-05-14T12:43:20.812Z,8.57
2023-05-14T12:44:23.677Z,9.95
2023-05-14T12:45:26.582Z,8.50
2023-05-14T12:46:30.074Z,9.02
2023-05-14T12:47:33.580Z,12.52
2023-05-14T12:48:36.580Z,8.85
2023-05-14T12:49:39.477Z,8.90
2023-05-14T12:50:42.323Z,8.40
2023-05-14T12:51:45.868Z,11.63
2023-05-14T12:52:48.652Z,10.40
2023-05-14T12:53:53.371Z,8.38
2023-05-14T12:54:56.216Z,17.35
2023-05-14T12:55:59.064Z,13.27
2023-05-14T12:57:01.967Z,8.40
2023-05-14T12:58:05.274Z,9.63
2023-05-14T12:59:09.674Z,10.50
2023-05-14T13:00:14.148Z,8.60
2023-05-14T13:01:17.362Z,10.88
2023-05-14T13:02:20.263Z,8.63
2023-05-14T13:03:23.403Z,11.27
2023-05-14T13:04:27.050Z,9.18
2023-05-14T13:05:29.989Z,10.13
2023-05-14T13:06:33.232Z,8.02
2023-05-14T13:07:36.387Z,15.35
2023-05-14T13:08:40.546Z,9.63
2023-05-14T13:09:44.929Z,12.07
2023-05-14T13:10:48.404Z,9.80
2023-05-14T13:11:51.311Z,10.38
2023-05-14T13:12:54.180Z,15.80
2023-05-14T13:13:57.004Z,10.88
2023-05-14T13:14:59.929Z,8.88
2023-05-14T13:16:02.742Z,10.68
2023-05-14T13:17:07.452Z,8.93
2023-05-14T13:18:10.503Z,8.55
2023-05-14T13:19:13.562Z,8.80
2023-05-14T13:20:18.546Z,10.10
2023-05-14T13:21:22.013Z,9.20
2023-05-14T13:22:24.853Z,7.47
2023-05-14T13:23:27.862Z,8.15
2023-05-14T13:24:30.879Z,8.75
2023-05-14T13:25:33.980Z,9.55
2023-05-14T13:26:38.217Z,8.98
2023-05-14T13:27:41.167Z,7.78
2023-05-14T13:28:44.138Z,8.23
2023-05-14T13:29:46.992Z,9.10
2023-05-14T13:31:06.267Z,8.68
2023-05-14T13:32:09.430Z,13.20
2023-05-14T13:33:12.294Z,9.50
2023-05-14T13:34:15.238Z,9.88
2023-05-14T13:35:18.239Z,8.48
2023-05-14T13:36:21.168Z,9.43
2023-05-14T13:37:25.251Z,7.03
2023-05-14T13:38:28.234Z,9.73
2023-05-14T13:39:31.182Z,8.02
2023-05-14T13:40:34.162Z,12.27
2023-05-14T13:41:38.101Z,7.43
2023-05-14T13:42:41.158Z,7.30
2023-05-14T13:43:44.020Z,9.85
2023-05-14T13:44:46.878Z,9.68
2023-05-14T13:45:50.459Z,8.57
2023-05-14T13:46:53.745Z,7.90
2023-05-14T13:47:56.827Z,7.87
2023-05-14T13:48:59.781Z,7.32
2023-05-14T13:50:02.640Z,12.02
2023-05-14T13:51:05.730Z,9.25
2023-05-14T13:52:08.685Z,9.68
2023-05-14T13:53:11.699Z,9.38
2023-05-14T13:54:14.670Z,8.13
2023-05-14T13:55:17.655Z,8.93
2023-05-14T13:56:21.646Z,10.18
2023-05-14T13:57:24.670Z,7.72
2023-05-14T13:58:27.900Z,17.45
2023-05-14T13:59:30.950Z,20.05
2023-05-14T14:00:34.614Z,38.05
2023-05-14T14:01:37.660Z,38.13
2023-05-14T14:02:40.736Z,40.75
2023-05-14T14:03:43.666Z,19.87
2023-05-14T14:04:46.682Z,17.33
2023-05-14T14:05:50.329Z,51.15
2023-05-14T14:06:53.252Z,48.15
2023-05-14T14:08:01.148Z,19.25